Time;durP1;ratioP1;P1;durP2;ratioP2;P2;SDS_P1;SDS_P2;PMS_P1;PMS_P2;Temp;Humidity;BMP_temperature;BMP_pressure;BME280_temperature;BME280_humidity;BME280_pressure;Samples;Min_cycle;Max_cycle;Signal;HPM_P1;HPM_P2
2023/05/01 00:00:33;;;;;;;50.10;23.70;;;;;;;3.24;61.37;99150.66;436451;1253;110139;-42
2023/05/01 00:10:51;;;;;;;34.90;17.90;;;;;;;3.17;61.71;99152.89;436241;1248;97883;-42
2023/05/01 00:20:55;;;;;;;42.20;19.80;;;;;;;3.37;62.15;99145.23;436387;1253;110795;-41
2023/05/01 00:30:58;;;;;;;44.40;23.30;;;;;;;3.45;62.13;99142.42;436225;1253;107453;-42
2023/05/01 00:41:02;;;;;;;58.30;29.10;;;;;;;3.37;62.29;99134.66;436553;1250;97499;-41
2023/05/01 00:51:08;;;;;;;68.20;29.40;;;;;;;3.12;62.46;99129.73;436443;1247;97980;-42
2023/05/01 01:01:12;;;;;;;57.60;27.30;;;;;;;3.00;63.03;99124.10;436144;1253;107774;-41
2023/05/01 01:11:16;;;;;;;48.80;26.20;;;;;;;2.82;63.14;99120.66;437781;1246;97870;-42
2023/05/01 01:21:20;;;;;;;34.00;20.50;;;;;;;2.69;63.38;99127.73;437474;1250;97883;-41
2023/05/01 01:31:29;;;;;;;31.10;16.80;;;;;;;2.70;63.52;99124.49;437445;1250;105523;-41
2023/05/01 01:41:32;;;;;;;48.80;24.90;;;;;;;2.67;63.81;99130.17;437327;1247;96570;-41
2023/05/01 01:51:40;;;;;;;53.60;28.30;;;;;;;2.54;64.21;99120.08;437375;1250;107253;-43
2023/05/01 02:01:45;;;;;;;60.00;30.30;;;;;;;2.40;64.41;99109.62;437588;1250;96643;-40
2023/05/01 02:11:50;;;;;;;75.80;37.70;;;;;;;2.32;64.67;99109.29;437472;1250;97063;-42
2023/05/01 02:21:59;;;;;;;78.70;39.80;;;;;;;2.12;64.76;99105.85;437499;1246;96631;-41
2023/05/01 02:32:03;;;;;;;67.30;36.50;;;;;;;2.11;65.23;99104.13;437517;1250;107525;-41
2023/05/01 02:42:06;;;;;;;51.50;28.60;;;;;;;2.27;65.34;99100.20;437494;1250;97461;-40
2023/05/01 02:52:12;;;;;;;59.40;30.30;;;;;;;2.31;65.46;99098.29;437510;1250;107858;-41
2023/05/01 03:02:19;;;;;;;65.40;35.20;;;;;;;2.16;65.89;99088.41;437578;1250;97879;-39
2023/05/01 03:12:26;;;;;;;61.90;31.70;;;;;;;2.14;66.05;99092.42;437450;1250;97858;-41
2023/05/01 03:32:34;;;;;;;67.50;35.00;;;;;;;2.15;66.56;99082.97;437630;1247;98427;-41
2023/05/01 03:42:38;;;;;;;65.00;35.60;;;;;;;2.21;66.47;99073.39;437140;1250;504233;-41
2023/05/01 03:52:42;;;;;;;42.40;25.70;;;;;;;2.39;66.52;99072.31;437124;1247;109045;-42
2023/05/01 04:02:46;;;;;;;53.40;29.70;;;;;;;3.00;66.57;99073.08;437347;1247;107766;-42
2023/05/01 04:12:50;;;;;;;56.60;31.10;;;;;;;5.26;66.36;99060.30;437626;1250;97469;-42
2023/05/01 04:33:01;;;;;;;48.60;30.70;;;;;;;9.41;63.31;99040.36;437490;1247;107381;-41
2023/05/01 04:43:06;;;;;;;47.30;30.00;;;;;;;10.64;61.93;99043.60;437738;1250;97902;-43
2023/05/01 04:53:09;;;;;;;42.10;27.70;;;;;;;11.01;60.53;99046.20;437581;1250;97874;-41
2023/05/01 05:13:18;;;;;;;28.80;17.90;;;;;;;12.54;58.65;99047.14;437585;1250;97464;-44
2023/05/01 05:23:22;;;;;;;27.00;17.00;;;;;;;13.18;57.33;99047.14;437424;1250;97925;-43
2023/05/01 05:33:28;;;;;;;31.00;19.40;;;;;;;13.69;56.05;99036.48;437438;1248;108153;-42
2023/05/01 05:43:31;;;;;;;28.60;15.20;;;;;;;14.39;54.77;99035.93;437508;1247;97268;-42
2023/05/01 05:53:35;;;;;;;28.30;12.40;;;;;;;14.90;52.96;99035.04;437515;1250;107564;-42
2023/05/01 06:03:39;;;;;;;15.20;8.80;;;;;;;15.06;51.64;99034.98;437481;1247;97454;-42
2023/05/01 06:13:43;;;;;;;16.20;7.20;;;;;;;15.52;49.55;99029.98;437602;1247;110202;-44
2023/05/01 06:23:47;;;;;;;11.40;7.00;;;;;;;15.54;47.96;99033.41;437462;1250;108550;-42
2023/05/01 06:33:51;;;;;;;14.10;6.10;;;;;;;15.99;46.88;99035.23;437510;1250;96638;-43
2023/05/01 06:43:58;;;;;;;9.70;5.30;;;;;;;15.95;45.22;99033.44;437548;1250;109343;-41
2023/05/01 06:54:01;;;;;;;14.50;5.70;;;;;;;15.51;43.82;99026.52;437457;1248;97899;-41
2023/05/01 07:04:04;;;;;;;12.10;3.80;;;;;;;15.49;43.58;99014.23;437759;1251;110688;-42
2023/05/01 07:14:08;;;;;;;7.20;3.40;;;;;;;15.85;42.79;99003.49;437510;1250;108165;-42
2023/05/01 07:44:18;;;;;;;3.90;2.20;;;;;;;16.98;41.38;98996.26;437467;1248;97892;-44
2023/05/01 07:54:22;;;;;;;6.00;2.60;;;;;;;16.84;40.05;98996.69;437395;1250;109732;-43
2023/05/01 08:04:26;;;;;;;4.00;2.40;;;;;;;16.94;39.73;98998.02;437529;1247;109238;-42
2023/05/01 08:14:30;;;;;;;5.70;2.30;;;;;;;17.19;39.33;98998.09;437472;1247;97880;-41
2023/05/01 08:24:34;;;;;;;5.90;2.30;;;;;;;17.01;37.08;98998.84;437496;1247;108378;-42
2023/05/01 08:34:38;;;;;;;9.10;3.30;;;;;;;17.02;37.48;98994.20;437401;1247;97719;-42
2023/05/01 08:44:42;;;;;;;4.90;2.50;;;;;;;17.20;37.90;98986.23;436312;1247;108698;-42
2023/05/01 08:54:47;;;;;;;4.60;2.10;;;;;;;17.40;37.31;98984.39;436996;1253;98024;-43
2023/05/01 09:04:52;;;;;;;4.60;1.90;;;;;;;17.54;37.20;98981.48;436254;1247;97864;-42
2023/05/01 09:14:56;;;;;;;5.20;2.80;;;;;;;17.70;36.81;98967.96;436431;1247;110343;-42
2023/05/01 09:25:00;;;;;;;4.50;2.30;;;;;;;17.84;36.35;98963.41;436423;1253;107830;-43
2023/05/01 09:35:11;;;;;;;3.60;2.20;;;;;;;17.40;36.61;98951.63;436374;1253;96657;-43
2023/05/01 09:45:16;;;;;;;5.80;2.50;;;;;;;17.34;35.57;98943.92;436571;1250;111634;-42
2023/05/01 09:55:22;;;;;;;4.10;2.00;;;;;;;17.50;35.64;98940.30;436475;1248;109301;-41
2023/05/01 10:15:49;;;;;;;3.50;1.60;;;;;;;17.65;34.78;98923.14;436532;1253;111583;-41
2023/05/01 10:25:55;;;;;;;4.30;1.60;;;;;;;17.55;34.05;98913.52;436325;1253;108492;-43
2023/05/01 10:36:00;;;;;;;5.10;2.20;;;;;;;17.89;34.61;98906.80;436388;1248;96648;-42
2023/05/01 10:56:45;;;;;;;9.00;1.80;;;;;;;18.22;32.83;98894.70;436348;1253;108380;-42
2023/05/01 11:07:19;;;;;;;5.90;2.40;;;;;;;18.44;32.29;98880.21;436322;1248;97880;-42
2023/05/01 11:17:48;;;;;;;4.10;1.80;;;;;;;18.42;31.06;98871.50;436398;1251;109554;-43
2023/05/01 11:27:54;;;;;;;11.30;2.70;;;;;;;18.56;30.90;98850.70;436133;1254;107780;-42
2023/05/01 11:37:57;;;;;;;2.20;1.40;;;;;;;18.66;30.07;98839.90;436320;1253;96661;-43
2023/05/01 11:48:01;;;;;;;7.00;2.10;;;;;;;18.77;29.97;98829.61;436364;1247;110187;-42
2023/05/01 11:58:08;;;;;;;25.30;3.70;;;;;;;18.84;30.36;98817.71;436394;1253;108719;-41
2023/05/01 12:08:11;;;;;;;1.50;1.10;;;;;;;18.91;29.80;98807.54;436392;1248;97908;-42
2023/05/01 12:28:27;;;;;;;2.70;1.50;;;;;;;18.94;29.20;98782.44;436377;1248;96646;-43
2023/05/01 12:38:31;;;;;;;4.90;1.70;;;;;;;18.86;29.61;98766.37;436348;1248;108876;-42
2023/05/01 12:48:40;;;;;;;4.10;2.30;;;;;;;18.76;29.19;98760.83;436468;1255;96652;-42
2023/05/01 12:58:43;;;;;;;4.30;2.00;;;;;;;18.83;29.82;98745.02;436392;1248;97864;-41
2023/05/01 13:08:48;;;;;;;4.30;1.70;;;;;;;18.97;29.33;98735.09;436241;1254;110438;-42
2023/05/01 13:18:52;;;;;;;7.00;2.30;;;;;;;18.85;29.78;98728.71;436422;1252;107900;-41
2023/05/01 13:28:57;;;;;;;4.70;2.10;;;;;;;18.80;29.24;98707.20;436451;1248;98030;-43
2023/05/01 13:59:10;;;;;;;5.40;3.30;;;;;;;18.91;30.10;98678.83;436308;1255;98238;-42
2023/05/01 14:09:15;;;;;;;10.80;3.50;;;;;;;18.84;29.86;98668.76;436354;1254;97459;-42
2023/05/01 14:19:19;;;;;;;5.50;3.10;;;;;;;19.03;29.44;98660.05;436463;1247;106822;-41
2023/05/01 14:39:32;;;;;;;6.00;2.60;;;;;;;18.91;29.43;98641.46;436460;1252;109073;-41
2023/05/01 14:49:35;;;;;;;4.90;2.70;;;;;;;18.92;29.91;98637.88;436309;1247;108166;-42
2023/05/01 15:09:47;;;;;;;6.70;4.10;;;;;;;18.61;30.12;98617.30;436413;1252;107606;-42
2023/05/01 15:19:51;;;;;;;7.90;3.30;;;;;;;18.72;29.96;98613.70;436355;1248;97464;-42
2023/05/01 15:29:55;;;;;;;4.20;2.50;;;;;;;18.59;29.57;98607.90;436312;1247;111466;-44
2023/05/01 15:39:59;;;;;;;4.40;2.50;;;;;;;18.49;29.73;98597.45;436224;1253;97428;-42
2023/05/01 16:00:09;;;;;;;6.50;2.30;;;;;;;18.25;29.97;98585.39;436261;1254;110601;-42
2023/05/01 16:10:13;;;;;;;3.60;2.70;;;;;;;18.14;30.40;98569.26;436568;1248;107173;-43
2023/05/01 16:20:16;;;;;;;4.90;2.90;;;;;;;18.03;30.46;98563.83;436301;1261;96647;-43
2023/05/01 16:30:26;;;;;;;10.20;3.80;;;;;;;17.95;30.60;98562.02;436342;1248;98546;-42
2023/05/01 16:40:30;;;;;;;5.60;3.30;;;;;;;17.84;30.74;98570.23;436207;1247;107966;-41
2023/05/01 16:50:33;;;;;;;7.30;4.40;;;;;;;17.65;30.96;98567.02;436392;1252;119828;-41
2023/05/01 17:00:37;;;;;;;6.50;4.40;;;;;;;17.54;31.51;98559.91;436352;1254;107775;-43
2023/05/01 17:10:45;;;;;;;9.20;4.30;;;;;;;17.28;31.25;98567.95;436431;1253;96644;-42
2023/05/01 17:20:49;;;;;;;10.90;4.60;;;;;;;16.84;31.71;98561.81;436243;1253;109725;-41
2023/05/01 17:30:53;;;;;;;9.70;4.70;;;;;;;16.50;32.22;98568.64;436328;1248;98547;-43
2023/05/01 17:40:57;;;;;;;7.60;4.30;;;;;;;16.15;32.93;98555.11;436466;1248;96627;-43
2023/05/01 17:51:01;;;;;;;12.50;5.10;;;;;;;15.79;33.29;98555.42;436404;1252;111711;-43
2023/05/01 18:01:09;;;;;;;7.70;4.20;;;;;;;15.42;33.80;98553.34;436428;1253;108447;-43
2023/05/01 18:11:13;;;;;;;8.20;4.80;;;;;;;15.11;34.39;98555.59;436399;1248;97457;-43
2023/05/01 18:21:17;;;;;;;12.50;6.80;;;;;;;14.78;35.04;98556.77;436443;1247;109890;-42
2023/05/01 18:31:19;;;;;;;10.00;6.00;;;;;;;14.46;35.59;98560.56;436430;1248;97886;-43
2023/05/01 18:41:27;;;;;;;22.40;6.50;;;;;;;14.20;36.05;98558.34;436346;1247;110842;-43
2023/05/01 18:51:31;;;;;;;13.00;7.20;;;;;;;14.00;36.44;98561.16;436312;1253;108286;-43
2023/05/01 19:11:38;;;;;;;16.20;7.30;;;;;;;13.61;37.28;98564.30;436381;1253;110086;-42
2023/05/01 19:21:45;;;;;;;10.40;7.50;;;;;;;13.47;37.63;98575.74;436387;1247;107257;-42
2023/05/01 19:31:49;;;;;;;16.10;8.80;;;;;;;13.27;37.93;98566.52;436377;1253;97813;-43
2023/05/01 19:41:53;;;;;;;17.40;8.10;;;;;;;13.06;38.38;98560.53;436513;1253;98178;-42
2023/05/01 19:51:57;;;;;;;12.00;6.50;;;;;;;12.90;38.80;98558.21;436330;1253;109266;-42
2023/05/01 20:02:01;;;;;;;13.20;7.50;;;;;;;12.76;39.24;98558.35;436478;1252;97345;-43
2023/05/01 20:12:05;;;;;;;33.40;17.70;;;;;;;12.56;39.72;98558.02;436352;1252;96649;-42
2023/05/01 20:22:08;;;;;;;30.30;18.30;;;;;;;12.35;40.33;98558.41;436505;1253;108020;-43
2023/05/01 20:32:13;;;;;;;33.10;19.10;;;;;;;12.11;40.73;98549.66;436516;1254;97880;-42
2023/05/01 20:42:17;;;;;;;33.70;16.90;;;;;;;11.97;41.37;98547.79;436337;1253;96694;-42
2023/05/01 20:52:20;;;;;;;20.40;11.30;;;;;;;11.88;41.98;98553.38;436330;1252;108013;-42
2023/05/01 21:02:24;;;;;;;16.10;9.70;;;;;;;11.70;42.56;98557.41;436215;1253;97788;-40
2023/05/01 21:12:28;;;;;;;18.00;8.30;;;;;;;11.38;43.23;98562.23;436346;1253;97957;-42
2023/05/01 21:22:32;;;;;;;16.90;8.00;;;;;;;11.05;43.89;98563.61;436299;1253;107805;-42
2023/05/01 21:32:38;;;;;;;20.00;9.00;;;;;;;10.96;44.37;98558.52;436312;1248;97964;-42
2023/05/01 21:42:42;;;;;;;23.80;10.60;;;;;;;10.95;44.62;98558.09;436342;1247;109455;-42
2023/05/01 21:52:48;;;;;;;24.90;11.40;;;;;;;10.91;45.13;98563.50;436381;1252;97937;-42
2023/05/01 22:02:52;;;;;;;24.70;11.20;;;;;;;10.89;45.51;98570.21;436465;1247;110974;-42
2023/05/01 22:12:56;;;;;;;23.70;11.10;;;;;;;10.84;45.79;98575.43;436363;1253;97494;-42
2023/05/01 22:33:06;;;;;;;20.40;11.20;;;;;;;10.64;46.57;98572.95;436526;1247;109249;-42
2023/05/01 22:43:13;;;;;;;26.00;11.40;;;;;;;10.52;46.98;98570.16;436433;1249;108523;-41
2023/05/01 22:53:17;;;;;;;23.40;11.50;;;;;;;10.45;47.54;98566.90;436442;1253;97928;-42
2023/05/01 23:03:21;;;;;;;19.30;10.30;;;;;;;10.45;47.96;98565.20;436396;1251;98181;-42
2023/05/01 23:13:26;;;;;;;21.20;10.70;;;;;;;10.39;48.41;98564.20;436393;1253;108093;-42
2023/05/01 23:33:40;;;;;;;24.20;11.80;;;;;;;10.25;49.27;98549.23;436520;1247;109206;-42
2023/05/01 23:43:46;;;;;;;19.50;10.20;;;;;;;10.18;49.68;98543.77;436393;1248;97859;-41
2023/05/01 23:53:49;;;;;;;21.60;10.90;;;;;;;10.07;50.25;98543.08;436378;1253;110185;-41
